createdAt,value
2019-03-21T00:01:22.630Z,38.20
2019-03-21T00:03:48.960Z,37.00
2019-03-21T00:06:15.643Z,36.47
2019-03-21T00:08:40.076Z,39.23
2019-03-21T00:11:13.129Z,38.40
2019-03-21T00:13:37.550Z,42.67
2019-03-21T00:16:03.423Z,42.67
2019-03-21T00:18:27.824Z,41.87
2019-03-21T00:20:52.273Z,44.20
2019-03-21T00:23:16.674Z,42.77
2019-03-21T00:25:41.175Z,42.30
2019-03-21T00:28:05.729Z,43.03
2019-03-21T00:30:30.160Z,47.50
2019-03-21T00:32:56.427Z,40.47
2019-03-21T00:35:20.983Z,44.73
2019-03-21T00:37:45.551Z,48.33
2019-03-21T00:40:18.911Z,47.27
2019-03-21T00:42:43.350Z,45.20
2019-03-21T00:45:10.830Z,45.67
2019-03-21T00:47:35.288Z,46.13
2019-03-21T00:49:59.703Z,47.57
2019-03-21T00:52:24.151Z,44.17
2019-03-21T00:54:48.556Z,43.83
2019-03-21T00:57:13.004Z,47.03
2019-03-21T00:59:37.410Z,46.97
2019-03-21T01:02:01.867Z,43.30
2019-03-21T01:04:27.735Z,46.37
2019-03-21T01:06:52.174Z,46.53
2019-03-21T01:09:16.731Z,45.37
2019-03-21T01:11:41.265Z,47.13
2019-03-21T01:14:05.804Z,47.03
2019-03-21T01:16:30.250Z,45.47
2019-03-21T01:18:54.674Z,44.57
2019-03-21T01:21:19.121Z,42.27
2019-03-21T01:23:43.533Z,43.40
2019-03-21T01:26:09.799Z,45.37
2019-03-21T01:28:34.325Z,43.03
2019-03-21T01:30:58.743Z,48.43
2019-03-21T01:33:23.244Z,42.97
2019-03-21T01:35:47.658Z,42.77
2019-03-21T01:38:12.106Z,47.27
2019-03-21T02:32:46.609Z,47.00
2019-03-21T02:35:11.207Z,44.27
2019-03-21T02:37:35.616Z,48.87
2019-03-21T02:40:00.543Z,47.03
2019-03-21T02:42:25.463Z,45.50
2019-03-21T02:44:49.998Z,52.90
2019-03-21T02:47:14.620Z,42.60
2019-03-21T02:49:39.065Z,43.40
2019-03-21T02:52:03.474Z,46.83
2019-03-21T02:54:27.994Z,44.87
2019-03-21T02:56:53.257Z,43.47
2019-03-21T02:59:17.679Z,42.67
2019-03-21T03:01:42.137Z,43.63
2019-03-21T03:04:06.564Z,46.37
2019-03-21T03:06:30.985Z,42.83
2019-03-21T03:08:55.398Z,42.60
2019-03-21T03:11:22.638Z,44.07
2019-03-21T03:13:49.702Z,42.03
2019-03-21T03:16:14.112Z,44.83
2019-03-21T03:18:38.516Z,45.53
2019-03-21T03:21:02.955Z,42.10
2019-03-21T03:23:27.351Z,41.27
2019-03-21T03:25:51.884Z,45.60
2019-03-21T03:28:37.633Z,43.40
2019-03-21T03:31:02.048Z,44.73
2019-03-21T03:33:26.981Z,47.33
2019-03-21T03:35:51.495Z,47.43
2019-03-21T03:38:15.918Z,45.63
2019-03-21T03:40:55.397Z,41.90
2019-03-21T03:43:19.915Z,44.73
2019-03-21T03:45:44.961Z,43.03
2019-03-21T03:48:09.448Z,44.37
2019-03-21T03:50:33.931Z,40.67
2019-03-21T03:52:59.202Z,40.97
2019-03-21T03:55:23.713Z,43.27
2019-03-21T03:57:51.015Z,39.40
2019-03-21T04:00:22.764Z,40.67
2019-03-21T04:02:49.166Z,39.93
2019-03-21T04:05:14.596Z,40.67
2019-03-21T04:07:39.518Z,43.77
2019-03-21T04:10:05.975Z,40.97
2019-03-21T04:12:30.835Z,39.00
2019-03-21T04:14:55.234Z,45.50
2019-03-21T04:17:19.668Z,40.97
2019-03-21T04:19:44.092Z,38.70
2019-03-21T04:22:08.591Z,43.20
2019-03-21T04:24:33.071Z,40.63
2019-03-21T04:26:57.559Z,40.50
2019-03-21T04:29:21.971Z,43.13
2019-03-21T04:31:46.426Z,39.63
2019-03-21T04:34:11.212Z,42.60
2019-03-21T04:36:37.261Z,42.20
2019-03-21T04:39:01.684Z,42.80
2019-03-21T04:41:26.106Z,41.10
2019-03-21T04:43:50.530Z,41.73
2019-03-21T04:46:14.943Z,43.17
2019-03-21T04:48:39.523Z,44.10
2019-03-21T04:51:04.011Z,37.67
2019-03-21T04:53:28.441Z,43.67
2019-03-21T04:55:53.157Z,42.20
2019-03-21T04:58:17.594Z,49.80
2019-03-21T05:00:43.744Z,49.93
2019-03-21T05:03:13.949Z,46.47
2019-03-21T05:05:38.421Z,46.37
2019-03-21T05:08:03.012Z,40.80
2019-03-21T05:10:27.424Z,46.00
2019-03-21T05:12:52.224Z,48.33
2019-03-21T05:15:19.930Z,49.20
2019-03-21T05:17:44.792Z,44.63
2019-03-21T05:20:15.114Z,46.63
2019-03-21T05:22:39.612Z,48.00
2019-03-21T05:25:06.006Z,43.90
2019-03-21T05:27:30.440Z,47.53
2019-03-21T05:29:54.852Z,43.80
2019-03-21T05:32:19.290Z,48.03
2019-03-21T05:34:43.767Z,50.50
2019-03-21T05:37:08.183Z,46.53
2019-03-21T05:39:32.704Z,46.67
2019-03-21T05:41:57.126Z,47.90
2019-03-21T05:44:24.598Z,44.47
2019-03-21T05:46:50.528Z,46.03
2019-03-21T05:49:14.969Z,45.87
2019-03-21T05:51:39.377Z,45.63
2019-03-21T05:54:03.870Z,46.17
2019-03-21T05:56:28.278Z,46.47
2019-03-21T05:58:52.713Z,43.97
2019-03-21T06:01:17.142Z,46.80
2019-03-21T06:03:46.853Z,45.00
2019-03-21T06:06:16.869Z,44.30
2019-03-21T06:08:41.955Z,42.53
2019-03-21T06:11:06.490Z,45.73
2019-03-21T06:13:30.935Z,45.77
2019-03-21T06:15:56.916Z,42.50
2019-03-21T06:18:26.983Z,42.97
2019-03-21T06:21:00.438Z,43.47
2019-03-21T06:23:44.423Z,40.43
2019-03-21T06:26:23.497Z,39.60
2019-03-21T06:28:47.938Z,40.03
2019-03-21T06:31:12.372Z,40.63
2019-03-21T06:33:36.798Z,41.07
2019-03-21T06:36:01.224Z,40.37
2019-03-21T06:38:25.634Z,37.80
2019-03-21T06:40:50.078Z,42.43
2019-03-21T06:43:14.579Z,38.47
2019-03-21T06:45:47.495Z,39.63
2019-03-21T06:48:05.292Z,38.20
2019-03-21T06:50:29.728Z,42.30
2019-03-21T06:52:54.159Z,40.50
2019-03-21T06:55:18.594Z,39.70
2019-03-21T06:57:43.002Z,39.90
2019-03-21T07:00:09.589Z,40.83
2019-03-21T07:02:33.991Z,37.53
2019-03-21T07:04:58.425Z,39.73
2019-03-21T07:07:22.837Z,37.03
2019-03-21T07:09:47.320Z,38.63
2019-03-21T07:12:11.815Z,39.80
2019-03-21T07:14:36.320Z,38.20
2019-03-21T07:17:00.974Z,36.80
2019-03-21T07:19:25.677Z,39.93
2019-03-21T07:21:50.098Z,38.93
2019-03-21T07:24:14.515Z,36.67
2019-03-21T07:26:38.958Z,36.57
2019-03-21T07:29:03.370Z,36.80
2019-03-21T07:31:29.452Z,36.23
2019-03-21T07:33:58.380Z,37.27
2019-03-21T07:36:26.337Z,37.20
2019-03-21T07:38:54.981Z,34.67
2019-03-21T07:41:22.262Z,35.47
2019-03-21T07:43:49.550Z,33.43
2019-03-21T07:46:14.894Z,32.63
2019-03-21T07:48:39.437Z,30.03
2019-03-21T07:51:03.866Z,30.53
2019-03-21T07:53:28.453Z,31.03
2019-03-21T07:55:53.036Z,32.40
2019-03-21T07:58:17.645Z,29.97
2019-03-21T08:00:42.082Z,28.83
2019-03-21T08:03:06.504Z,29.60
2019-03-21T08:05:39.753Z,30.57
2019-03-21T08:07:57.047Z,29.33
2019-03-21T08:10:21.518Z,30.77
2019-03-21T08:12:45.974Z,31.67
2019-03-21T08:15:17.657Z,27.30
2019-03-21T08:17:42.230Z,31.03
2019-03-21T08:20:09.684Z,29.10
2019-03-21T08:22:34.134Z,30.07
2019-03-21T08:24:58.546Z,30.37
2019-03-21T08:27:23.076Z,28.93
2019-03-21T08:29:46.482Z,28.50
2019-03-21T08:32:10.679Z,29.47
2019-03-21T08:34:35.102Z,27.53
2019-03-21T08:36:59.529Z,27.77
2019-03-21T08:39:24.052Z,31.30
2019-03-21T08:41:48.450Z,25.47
2019-03-21T08:44:12.872Z,26.67
2019-03-21T08:46:37.311Z,27.87
2019-03-21T08:49:01.886Z,29.77
2019-03-21T08:51:26.335Z,28.17
2019-03-21T08:53:50.764Z,24.73
2019-03-21T08:56:15.169Z,29.70
2019-03-21T08:58:39.606Z,27.47
2019-03-21T09:01:04.153Z,30.73
2019-03-21T09:03:28.597Z,26.83
2019-03-21T09:05:53.002Z,27.27
2019-03-21T09:08:17.446Z,27.30
2019-03-21T09:10:41.876Z,27.63
2019-03-21T09:13:06.476Z,25.07
2019-03-21T09:15:30.896Z,28.67
2019-03-21T09:17:55.592Z,24.60
2019-03-21T09:20:20.037Z,25.07
2019-03-21T09:22:44.479Z,27.83
2019-03-21T09:25:09.255Z,25.83
2019-03-21T09:27:33.708Z,27.17
2019-03-21T09:29:58.119Z,27.00
2019-03-21T09:32:22.874Z,27.03
2019-03-21T09:34:47.335Z,24.80
2019-03-21T09:37:11.827Z,26.87
2019-03-21T09:39:36.254Z,27.77
2019-03-21T09:42:00.750Z,27.80
2019-03-21T09:44:26.827Z,29.30
2019-03-21T09:46:51.753Z,26.77
2019-03-21T09:49:16.201Z,31.03
2019-03-21T09:51:40.619Z,29.20
2019-03-21T09:54:09.788Z,29.50
2019-03-21T09:56:31.313Z,29.67
2019-03-21T09:58:55.810Z,25.03
2019-03-21T10:01:20.361Z,27.93
2019-03-21T10:03:44.858Z,23.97
2019-03-21T10:06:09.252Z,26.63
2019-03-21T10:08:33.693Z,26.03
2019-03-21T10:10:58.129Z,24.37
2019-03-21T10:13:22.559Z,26.03
2019-03-21T10:15:48.483Z,22.87
2019-03-21T10:18:12.994Z,20.83
2019-03-21T10:20:37.460Z,22.43
2019-03-21T10:23:01.950Z,21.63
2019-03-21T10:25:26.968Z,20.17
2019-03-21T10:27:51.737Z,22.47
2019-03-21T10:30:31.013Z,26.10
2019-03-21T10:32:55.436Z,21.90
2019-03-21T10:35:22.656Z,24.47
2019-03-21T10:37:47.075Z,20.90
2019-03-21T10:40:13.064Z,21.90
2019-03-21T10:42:37.506Z,24.70
2019-03-21T10:45:01.933Z,24.00
2019-03-21T10:47:26.435Z,22.17
2019-03-21T10:49:50.852Z,20.97
2019-03-21T10:52:15.275Z,23.50
2019-03-21T10:54:39.720Z,24.83
2019-03-21T10:57:04.131Z,23.43
2019-03-21T10:59:28.566Z,21.67
2019-03-21T11:01:52.993Z,27.10
2019-03-21T11:04:17.433Z,21.77
2019-03-21T11:06:41.844Z,24.00
2019-03-21T11:09:07.969Z,25.63
2019-03-21T11:11:32.464Z,28.50
2019-03-21T11:13:56.913Z,22.90
2019-03-21T11:16:21.471Z,24.70
2019-03-21T11:18:45.970Z,21.37
2019-03-21T11:21:10.502Z,22.23
2019-03-21T11:23:34.997Z,19.43
2019-03-21T11:25:59.436Z,24.70
2019-03-21T11:28:23.857Z,23.47
2019-03-21T11:30:48.315Z,20.57
2019-03-21T11:33:12.812Z,23.10
2019-03-21T11:35:37.337Z,23.37
2019-03-21T11:38:02.209Z,20.87
2019-03-21T11:40:26.725Z,20.70
2019-03-21T11:42:51.128Z,22.67
2019-03-21T11:45:15.664Z,23.00
2019-03-21T11:47:42.062Z,22.93
2019-03-21T11:50:06.837Z,20.50
2019-03-21T11:52:31.243Z,22.00
2019-03-21T11:54:55.673Z,24.23
2019-03-21T11:57:20.175Z,22.70
2019-03-21T11:59:51.677Z,23.57
2019-03-21T12:02:10.770Z,24.77
2019-03-21T12:04:35.235Z,23.43
2019-03-21T12:06:59.785Z,23.60
2019-03-21T12:09:24.284Z,24.47
2019-03-21T12:11:48.809Z,24.93
2019-03-21T12:14:13.229Z,20.50
2019-03-21T12:16:37.752Z,25.17
2019-03-21T12:19:02.189Z,21.97
2019-03-21T12:21:26.647Z,25.73
2019-03-21T12:23:51.092Z,23.20
2019-03-21T12:26:15.549Z,24.57
2019-03-21T12:28:40.067Z,28.10
2019-03-21T12:31:04.682Z,25.13
2019-03-21T12:33:29.126Z,25.67
2019-03-21T12:35:53.574Z,24.27
2019-03-21T12:38:18.023Z,25.10
2019-03-21T12:40:42.629Z,27.07
2019-03-21T12:43:07.220Z,23.87
2019-03-21T12:45:31.742Z,24.00
2019-03-21T12:47:56.229Z,25.93
2019-03-21T12:50:20.651Z,23.53
2019-03-21T12:52:45.106Z,26.77
2019-03-21T12:55:09.772Z,27.47
2019-03-21T12:57:34.222Z,30.43
2019-03-21T12:59:58.661Z,28.07
2019-03-21T13:02:31.925Z,23.60
2019-03-21T13:04:49.643Z,22.50
2019-03-21T13:07:14.790Z,22.80
2019-03-21T13:09:39.642Z,24.23
2019-03-21T13:12:04.209Z,27.60
2019-03-21T13:14:28.621Z,25.10
2019-03-21T13:16:53.060Z,24.57
2019-03-21T13:19:17.468Z,25.97
2019-03-21T13:21:41.905Z,22.27
2019-03-21T13:24:06.352Z,24.43
2019-03-21T13:26:30.785Z,28.57
2019-03-21T13:28:55.219Z,27.97
2019-03-21T13:31:19.641Z,24.27
2019-03-21T13:33:44.094Z,25.53
2019-03-21T13:36:08.692Z,26.20
2019-03-21T13:38:33.142Z,27.30
2019-03-21T13:40:57.568Z,22.77
2019-03-21T13:43:22.001Z,30.50
2019-03-21T13:45:46.422Z,25.13
2019-03-21T13:48:10.983Z,25.60
2019-03-21T13:50:35.552Z,27.80
2019-03-21T13:53:04.815Z,28.13
2019-03-21T13:55:26.247Z,28.90
2019-03-21T13:57:50.706Z,31.07
2019-03-21T14:00:17.918Z,27.60
2019-03-21T14:02:42.451Z,30.30
2019-03-21T14:05:08.317Z,28.63
2019-03-21T14:07:32.861Z,27.83
2019-03-21T14:09:57.232Z,24.10
2019-03-21T14:12:21.663Z,25.10
2019-03-21T14:14:46.102Z,27.27
2019-03-21T14:17:21.312Z,26.83
2019-03-21T14:19:36.644Z,28.87
2019-03-21T14:22:01.075Z,27.57
2019-03-21T14:24:25.580Z,26.90
2019-03-21T14:26:49.987Z,24.97
2019-03-21T14:29:14.426Z,21.40
2019-03-21T14:31:38.847Z,24.33
2019-03-21T14:34:03.293Z,25.43
2019-03-21T14:36:27.707Z,25.13
2019-03-21T14:38:52.141Z,34.00
2019-03-21T14:41:16.640Z,25.93
2019-03-21T14:43:41.075Z,28.60
2019-03-21T14:46:05.572Z,25.23
2019-03-21T14:48:30.123Z,25.10
2019-03-21T14:50:54.561Z,24.40
2019-03-21T14:53:28.420Z,29.43
2019-03-21T14:55:47.652Z,26.97
2019-03-21T14:58:11.299Z,23.70
2019-03-21T15:00:35.813Z,28.47
2019-03-21T15:03:00.270Z,30.27
2019-03-21T15:05:24.723Z,26.70
2019-03-21T15:07:49.341Z,27.37
2019-03-21T15:10:16.391Z,27.50
2019-03-21T15:12:40.983Z,26.30
2019-03-21T15:15:07.957Z,23.50
2019-03-21T15:17:32.385Z,25.03
2019-03-21T15:19:56.892Z,25.23
2019-03-21T15:22:21.369Z,23.77
2019-03-21T15:24:46.003Z,23.47
2019-03-21T15:27:10.489Z,21.63
2019-03-21T15:29:35.535Z,22.50
2019-03-21T15:32:00.345Z,23.20
2019-03-21T15:34:24.786Z,23.17
2019-03-21T15:36:49.191Z,24.30
2019-03-21T15:39:13.790Z,23.30
2019-03-21T15:41:38.702Z,22.37
2019-03-21T15:44:03.308Z,23.03
2019-03-21T15:46:27.736Z,22.30
2019-03-21T15:48:52.223Z,22.27
2019-03-21T15:51:16.676Z,22.43
2019-03-21T15:53:53.249Z,23.43
2019-03-21T15:56:07.268Z,22.93
2019-03-21T15:58:31.684Z,22.00
2019-03-21T16:00:56.122Z,21.43
2019-03-21T16:03:20.988Z,21.17
2019-03-21T16:05:45.426Z,21.13
2019-03-21T16:08:10.093Z,22.87
2019-03-21T16:10:34.649Z,19.57
2019-03-21T16:12:59.071Z,20.83
2019-03-21T16:15:23.528Z,21.00
2019-03-21T16:17:47.935Z,23.37
2019-03-21T16:20:12.517Z,19.87
2019-03-21T16:22:37.071Z,19.47
2019-03-21T16:25:01.490Z,19.07
2019-03-21T16:27:25.958Z,20.13
2019-03-21T16:29:50.342Z,20.60
2019-03-21T16:32:14.775Z,22.60
2019-03-21T16:34:39.180Z,20.37
2019-03-21T16:37:03.689Z,21.80
2019-03-21T16:39:28.113Z,21.20
2019-03-21T16:41:52.613Z,22.03
2019-03-21T16:44:17.041Z,19.67
2019-03-21T16:46:41.470Z,21.03
2019-03-21T16:49:05.959Z,21.77
2019-03-21T16:51:30.397Z,21.87
2019-03-21T16:53:54.811Z,23.23
2019-03-21T16:56:19.312Z,23.57
2019-03-21T16:58:43.723Z,23.53
2019-03-21T17:01:08.166Z,22.13
2019-03-21T17:03:32.591Z,26.27
2019-03-21T17:05:57.036Z,25.37
2019-03-21T17:08:21.463Z,21.93
2019-03-21T17:10:45.963Z,22.37
2019-03-21T17:13:10.378Z,22.53
2019-03-21T17:15:34.800Z,22.50
2019-03-21T17:17:59.281Z,22.77
2019-03-21T17:20:23.698Z,23.90
2019-03-21T17:22:48.199Z,25.47
2019-03-21T17:25:13.187Z,26.57
2019-03-21T17:27:37.701Z,27.87
2019-03-21T17:30:02.203Z,25.20
2019-03-21T17:32:26.707Z,25.20
2019-03-21T17:34:51.159Z,29.83
2019-03-21T17:37:15.614Z,25.53
2019-03-21T17:39:40.025Z,23.57
2019-03-21T17:42:04.610Z,25.10
2019-03-21T17:44:29.035Z,24.13
2019-03-21T17:46:53.534Z,25.00
2019-03-21T17:49:17.957Z,23.30
2019-03-21T17:51:42.368Z,27.67
2019-03-21T17:54:06.816Z,26.60
2019-03-21T17:56:31.302Z,25.40
2019-03-21T17:58:55.854Z,25.70
2019-03-21T18:01:20.499Z,28.43
2019-03-21T18:03:45.026Z,24.17
2019-03-21T18:06:09.500Z,27.07
2019-03-21T18:08:34.016Z,25.37
2019-03-21T18:10:58.419Z,28.87
2019-03-21T18:13:22.844Z,28.37
2019-03-21T18:15:47.340Z,28.23
2019-03-21T18:18:11.780Z,28.90
2019-03-21T18:20:36.219Z,29.67
2019-03-21T18:23:00.793Z,26.87
2019-03-21T18:25:25.345Z,27.23
2019-03-21T18:27:49.843Z,30.33
2019-03-21T18:30:15.048Z,27.33
2019-03-21T18:32:39.457Z,30.30
2019-03-21T18:35:05.744Z,30.73
2019-03-21T18:37:30.158Z,28.70
2019-03-21T18:39:55.489Z,31.20
2019-03-21T18:42:19.918Z,30.20
2019-03-21T18:44:44.390Z,30.40
2019-03-21T18:47:08.906Z,28.87
2019-03-21T18:49:33.422Z,31.57
2019-03-21T18:51:57.915Z,29.17
2019-03-21T18:54:22.393Z,30.03
2019-03-21T18:56:46.821Z,32.10
2019-03-21T18:59:11.279Z,29.30
2019-03-21T19:01:35.757Z,31.03
2019-03-21T19:04:00.201Z,30.60
2019-03-21T19:06:24.609Z,33.47
2019-03-21T19:08:49.058Z,32.83
2019-03-21T19:11:13.473Z,31.23
2019-03-21T19:13:37.942Z,29.50
2019-03-21T19:16:02.339Z,31.97
2019-03-21T19:18:26.804Z,33.43
2019-03-21T19:20:51.325Z,34.23
2019-03-21T19:23:15.737Z,35.97
2019-03-21T19:25:40.186Z,35.50
2019-03-21T19:28:04.750Z,30.83
2019-03-21T19:30:29.276Z,33.07
2019-03-21T19:32:53.699Z,33.57
2019-03-21T19:35:18.220Z,33.63
2019-03-21T19:37:42.635Z,34.83
2019-03-21T19:40:09.859Z,35.80
2019-03-21T19:42:34.342Z,37.10
2019-03-21T19:44:58.848Z,37.60
2019-03-21T19:47:29.862Z,35.83
2019-03-21T19:49:49.429Z,38.67
2019-03-21T19:52:14.150Z,35.70
2019-03-21T19:54:38.656Z,37.27
2019-03-21T19:57:03.081Z,33.37
2019-03-21T19:59:27.495Z,37.53
2019-03-21T20:01:52.017Z,35.07
2019-03-21T20:04:16.425Z,38.53
2019-03-21T20:06:40.871Z,37.60
2019-03-21T20:09:07.433Z,35.97
2019-03-21T20:11:31.960Z,35.90
2019-03-21T20:13:56.448Z,37.03
2019-03-21T20:16:21.041Z,35.93
2019-03-21T20:18:45.484Z,35.27
2019-03-21T20:21:10.014Z,39.80
2019-03-21T20:23:34.443Z,35.73
2019-03-21T20:25:59.668Z,36.53
2019-03-21T20:28:24.105Z,35.53
2019-03-21T20:30:48.547Z,33.13
2019-03-21T20:33:12.984Z,34.93
2019-03-21T20:35:37.438Z,35.90
2019-03-21T20:38:01.929Z,34.20
2019-03-21T20:40:26.353Z,36.73
2019-03-21T20:42:50.830Z,33.73
2019-03-21T20:45:16.680Z,36.53
2019-03-21T20:47:41.198Z,34.43
2019-03-21T20:50:06.571Z,36.07
2019-03-21T20:52:30.991Z,35.87
2019-03-21T20:54:55.408Z,35.37
2019-03-21T20:57:19.839Z,34.50
2019-03-21T20:59:44.250Z,37.20
2019-03-21T21:02:08.750Z,33.73
2019-03-21T21:04:33.227Z,34.70
2019-03-21T21:06:57.658Z,33.77
2019-03-21T21:09:22.072Z,33.83
2019-03-21T21:11:46.490Z,35.63
2019-03-21T21:14:10.889Z,36.03
2019-03-21T21:16:35.322Z,31.40
2019-03-21T21:18:59.723Z,33.20
2019-03-21T21:21:24.184Z,33.30
2019-03-21T21:23:48.613Z,35.83
2019-03-21T21:26:13.103Z,33.93
2019-03-21T21:28:37.560Z,37.83
2019-03-21T21:31:02.005Z,37.97
2019-03-21T21:33:26.484Z,37.63
2019-03-21T21:35:50.898Z,35.53
2019-03-21T21:38:15.411Z,36.20
2019-03-21T21:40:39.822Z,36.60
2019-03-21T21:43:04.405Z,35.27
2019-03-21T21:45:28.828Z,33.43
2019-03-21T21:47:53.337Z,34.77
2019-03-21T21:50:18.557Z,35.17
2019-03-21T21:52:43.039Z,32.50
2019-03-21T21:55:08.808Z,37.90
2019-03-21T21:57:33.262Z,33.20
2019-03-21T21:59:57.689Z,34.40
2019-03-21T22:02:22.218Z,30.17
2019-03-21T22:04:46.642Z,28.47
2019-03-21T22:07:11.069Z,28.93
2019-03-21T22:09:35.509Z,32.77
2019-03-21T22:11:59.936Z,33.43
2019-03-21T22:14:24.388Z,37.53
2019-03-21T22:16:48.806Z,36.23
2019-03-21T22:19:13.239Z,35.63
2019-03-21T22:21:37.686Z,37.13
2019-03-21T22:24:02.119Z,37.90
2019-03-21T22:26:30.066Z,38.30
2019-03-21T22:28:54.681Z,39.23
2019-03-21T22:31:19.099Z,38.57
2019-03-21T22:33:43.560Z,34.67
2019-03-21T22:36:08.039Z,38.03
2019-03-21T22:38:32.557Z,38.37
2019-03-21T22:40:56.969Z,35.43
2019-03-21T22:43:21.387Z,35.63
2019-03-21T22:45:45.834Z,36.70
2019-03-21T22:48:10.336Z,33.63
2019-03-21T22:50:34.775Z,35.50
2019-03-21T22:52:59.260Z,35.50
2019-03-21T22:55:23.709Z,34.03
2019-03-21T22:57:48.300Z,32.57
2019-03-21T23:00:18.187Z,34.33
2019-03-21T23:02:42.589Z,34.63
2019-03-21T23:05:07.895Z,35.70
2019-03-21T23:07:32.308Z,37.63
2019-03-21T23:09:56.764Z,37.53
2019-03-21T23:12:21.298Z,34.13
2019-03-21T23:14:45.735Z,33.73
2019-03-21T23:17:10.155Z,31.93
2019-03-21T23:19:34.583Z,34.13
2019-03-21T23:21:59.097Z,33.80
2019-03-21T23:24:23.611Z,31.80
2019-03-21T23:26:52.925Z,31.27
2019-03-21T23:29:14.246Z,30.83
2019-03-21T23:31:38.654Z,28.40
2019-03-21T23:34:03.098Z,30.60
2019-03-21T23:36:27.579Z,27.83
2019-03-21T23:38:52.026Z,29.37
2019-03-21T23:41:16.510Z,26.60
2019-03-21T23:43:40.927Z,30.07
2019-03-21T23:46:05.354Z,27.70
2019-03-21T23:48:29.768Z,29.67
2019-03-21T23:50:54.276Z,29.67
2019-03-21T23:53:18.705Z,29.77
2019-03-21T23:55:43.209Z,31.83
2019-03-21T23:58:07.623Z,30.40
